Bookmark and Share
Track history (hours):
 

Gas Snapper

Last reported at 2014-Apr-17 23:24 UTC. Time now 2014-Apr-18 20:47 UTC.
Position N 46°31' E 030°59'.

Length 174 m; draft 6.3 m.

Type: Ship (hazmat cat D). MMSI: 538003911.

NotesDate/timePositionNaut miles runAvg speedWind from/ knotsBaromVisibWave heightAir tempDewpointWater temp
2014-Apr-17 23:24N 46°31' E 030°59'0 0.0
2014-Apr-17 06:33N 46°31' E 030°59'0 0.0
2014-Apr-17 05:33N 46°31' E 030°59'0 0.0
2014-Apr-17 04:33N 46°31' E 030°59'0 0.0
2014-Apr-17 03:33N 46°32' E 030°59'0 0.0
2014-Apr-17 02:33N 46°31' E 030°59'0 0.0
2014-Apr-17 01:33N 46°31' E 030°59'0 0.0
2014-Apr-16 23:30N 46°31' E 030°59'0 0.0
2014-Apr-16 22:33N 46°32' E 030°59'  
2014-Apr-13 19:23N 39°34' E 025°44'11616.3
2014-Apr-13 12:17N 37°51' E 024°37'1216.3
2014-Apr-13 11:33N 37°40' E 024°32'1615.8
2014-Apr-13 10:32N 37°27' E 024°20'1616.0
2014-Apr-13 09:33N 37°12' E 024°12'1616.1
2014-Apr-13 08:33N 36°57' E 024°06'1615.4
2014-Apr-13 07:33N 36°43' E 023°57'42316.1
2014-Apr-12 05:13N 36°24' E 015°11'1216.6
2014-Apr-12 04:30N 36°24' E 014°56'1816.7
2014-Apr-12 03:25N 36°25' E 014°34'1616.2
2014-Apr-12 02:27N 36°25' E 014°14'1616.3
2014-Apr-12 01:27N 36°26' E 013°54'1716.4
2014-Apr-12 00:27N 36°33' E 013°36'1516.4
2014-Apr-11 23:30N 36°40' E 013°18'1616.4
2014-Apr-11 22:33N 36°45' E 012°60'1616.0
2014-Apr-11 21:32N 36°51' E 012°41'3416.2
2014-Apr-11 19:24N 37°04' E 012°01'1416.1
2014-Apr-11 18:33N 37°09' E 011°45'1616.2
2014-Apr-11 17:33N 37°15' E 011°26'1616.1
2014-Apr-11 16:33N 37°22' E 011°08'1716.5
2014-Apr-11 15:33N 37°29' E 010°49'1716.6
2014-Apr-11 14:33N 37°33' E 010°29'1716.8
2014-Apr-11 13:32N 37°34' E 010°07'1716.7
2014-Apr-11 12:32N 37°34' E 009°46'1816.4
2014-Apr-11 11:26N 37°35' E 009°24'1916.5
2014-Apr-11 10:18N 37°37' E 009°00'1916.6
2014-Apr-11 09:10N 37°39' E 008°36'4316.0
2014-Apr-11 06:29N 37°34' E 007°43'6516.1
2014-Apr-11 02:28N 37°24' E 006°22'1715.9
2014-Apr-11 01:25N 37°21' E 006°01'1416.7
2014-Apr-11 00:33N 37°19' E 005°44'1717.1
2014-Apr-10 23:33N 37°17' E 005°22'1917.4
2014-Apr-10 22:26N 37°14' E 004°58'1517.1
2014-Apr-10 21:33N 37°11' E 004°40'1616.5
2014-Apr-10 20:33N 37°09' E 004°19'1717.1
2014-Apr-10 19:33N 37°07' E 003°58'1717.0
2014-Apr-10 18:32N 37°05' E 003°36'2416.7
2014-Apr-10 17:06N 37°03' E 003°06'1116.7
2014-Apr-10 16:27N 37°01' E 002°53'1516.8
2014-Apr-10 15:33N 36°56' E 002°35'19417.0
2014-Apr-10 04:12N 36°28' W 001°24'18816.2
2014-Apr-09 16:34N 36°00' W 005°14'1716.5
2014-Apr-09 15:30N 35°56' W 005°35'1515.6
2014-Apr-09 14:33N 35°55' W 005°53'6014.8
2014-Apr-09 10:31N 36°04' W 007°07'1714.6
2014-Apr-09 09:19N 36°08' W 007°27'1114.8
2014-Apr-09 08:33N 36°11' W 007°41'1515.2
2014-Apr-09 07:33N 36°14' W 007°59'3115.4
2014-Apr-09 05:33N 36°21' W 008°37'1615.6
2014-Apr-09 04:33N 36°25' W 008°55'1515.5
2014-Apr-09 03:33N 36°29' W 009°14'1514.8
2014-Apr-09 02:33N 36°38' W 009°29'3114.9
2014-Apr-09 00:30N 37°06' W 009°44'1515.9
2014-Apr-08 23:33N 37°20' W 009°48'1616.1
2014-Apr-08 22:33N 37°36' W 009°53'1616.0
2014-Apr-08 21:33N 37°51' W 009°58'1616.3
2014-Apr-08 20:33N 38°08' W 010°02'2216.5
2014-Apr-08 19:11N 38°29' W 010°09'1216.5
2014-Apr-08 18:29N 38°41' W 010°12'  

Dump ship's entire track history

sailing weather and tide predictions

Gas Snapper — V7TZ3 — position and weather